Time;durP1;ratioP1;P1;durP2;ratioP2;P2;SDS_P1;SDS_P2;PMS_P1;PMS_P2;Temp;Humidity;BMP_temperature;BMP_pressure;BME280_temperature;BME280_humidity;BME280_pressure;Samples;Min_cycle;Max_cycle;Signal;HPM_P1;HPM_P2
2022/01/15 00:00:21;;;;;;;7.78;3.60;;;8.90;99.90;;;;;;10541293;28;20029;-69
2022/01/15 00:05:22;;;;;;;6.20;2.50;;;8.90;99.90;;;;;;10532250;28;20035;-64
2022/01/15 00:10:27;;;;;;;5.50;3.05;;;9.00;99.90;;;;;;10532226;28;20089;-62
2022/01/15 00:15:32;;;;;;;5.60;3.08;;;8.90;99.90;;;;;;10530271;28;20082;-66
2022/01/15 00:20:33;;;;;;;5.85;2.75;;;9.00;99.90;;;;;;10536506;28;20028;-65
2022/01/15 00:25:34;;;;;;;5.30;2.65;;;9.00;99.90;;;;;;10517181;28;20035;-65
2022/01/15 00:30:35;;;;;;;5.40;2.95;;;9.00;99.90;;;;;;10530416;28;20051;-63
2022/01/15 00:35:37;;;;;;;3.80;2.40;;;9.00;99.90;;;;;;10529439;28;20036;-67
2022/01/15 00:40:38;;;;;;;7.63;3.22;;;9.00;99.90;;;;;;10523033;28;20039;-71
2022/01/15 00:45:39;;;;;;;4.97;2.50;;;9.00;99.90;;;;;;10530288;28;20036;-62
2022/01/15 00:50:40;;;;;;;5.10;2.83;;;9.00;99.90;;;;;;10516659;28;20039;-66
2022/01/15 00:55:40;;;;;;;5.15;2.75;;;8.90;99.90;;;;;;10518960;28;20064;-64
2022/01/15 01:00:43;;;;;;;5.55;2.42;;;8.90;99.90;;;;;;10538069;28;20027;-62
2022/01/15 01:05:44;;;;;;;3.95;2.30;;;8.90;99.90;;;;;;10532517;28;20030;-66
2022/01/15 01:10:59;;;;;;;5.05;2.42;;;8.90;99.90;;;;;;10526747;28;20115;-66
2022/01/15 01:26:41;;;;;;;5.45;2.63;;;9.30;99.90;;;;;;10505494;28;20522;-67
2022/01/15 01:47:29;;;;;;;5.70;2.33;;;8.90;99.90;;;;;;10514480;28;20248;-64
2022/01/15 01:52:30;;;;;;;6.78;2.58;;;8.90;99.90;;;;;;10527304;28;20071;-69
2022/01/15 01:57:32;;;;;;;5.32;2.10;;;9.00;99.90;;;;;;10535960;28;20111;-68
2022/01/15 02:02:32;;;;;;;5.60;2.17;;;8.90;99.90;;;;;;10525166;28;20036;-64
2022/01/15 02:07:33;;;;;;;6.50;2.60;;;8.90;99.90;;;;;;10529953;28;20397;-69
2022/01/15 02:12:35;;;;;;;4.40;1.98;;;8.90;99.90;;;;;;10508444;28;20036;-65
2022/01/15 02:17:36;;;;;;;4.50;2.35;;;8.90;99.90;;;;;;10515766;28;20061;-66
2022/01/15 02:27:56;;;;;;;;;;;8.90;99.90;;;;;;10523458;28;20078;-63
2022/01/15 02:32:57;;;;;;;2.97;1.70;;;8.90;99.90;;;;;;10526577;28;20223;-62
2022/01/15 02:38:08;;;;;;;4.45;1.98;;;8.80;99.90;;;;;;10509118;28;20024;-65
2022/01/15 02:43:13;;;;;;;2.88;1.88;;;8.80;99.90;;;;;;10514574;28;20453;-68
2022/01/15 02:48:16;;;;;;;3.03;1.90;;;8.80;99.90;;;;;;10513787;28;20058;-67
2022/01/15 02:53:18;;;;;;;3.53;1.88;;;9.00;99.90;;;;;;10509039;28;20479;-66
2022/01/15 02:58:21;;;;;;;3.33;1.80;;;8.80;99.90;;;;;;10536779;28;20032;-64
2022/01/15 03:03:22;;;;;;;2.72;1.58;;;8.80;99.90;;;;;;10527786;28;20024;-66
2022/01/15 03:08:22;;;;;;;3.50;1.73;;;8.80;99.90;;;;;;10537503;28;20116;-66
2022/01/15 03:13:23;;;;;;;2.90;1.60;;;8.80;99.90;;;;;;10534150;28;20374;-68
2022/01/15 03:18:24;;;;;;;3.63;1.77;;;8.80;99.90;;;;;;10539586;28;20125;-68
2022/01/15 03:23:25;;;;;;;3.13;1.13;;;8.80;99.90;;;;;;10534090;28;20115;-64
2022/01/15 03:28:25;;;;;;;3.15;1.45;;;8.80;99.90;;;;;;10533235;28;20024;-64
2022/01/15 03:33:26;;;;;;;2.75;1.40;;;8.80;99.90;;;;;;10520417;28;20054;-69
2022/01/15 03:38:27;;;;;;;2.28;1.27;;;8.70;99.90;;;;;;10533197;28;20028;-60
2022/01/15 03:43:28;;;;;;;2.75;1.30;;;8.80;99.90;;;;;;10533162;28;20036;-65
2022/01/15 03:48:28;;;;;;;2.13;1.20;;;8.70;99.90;;;;;;10519212;28;20039;-61
2022/01/15 03:53:29;;;;;;;2.58;1.30;;;8.70;99.90;;;;;;10532424;28;20061;-65
2022/01/15 03:58:30;;;;;;;2.63;1.15;;;8.70;99.90;;;;;;10542644;28;20036;-67
2022/01/15 04:03:31;;;;;;;2.03;1.25;;;8.70;99.90;;;;;;10532260;28;20054;-71
2022/01/15 04:08:32;;;;;;;1.98;1.35;;;8.70;99.90;;;;;;10534738;28;20073;-68
2022/01/15 04:13:33;;;;;;;3.25;1.00;;;8.70;99.90;;;;;;10531549;28;20048;-65
2022/01/15 04:18:40;;;;;;;2.38;0.95;;;8.70;99.90;;;;;;10537384;28;20024;-70
2022/01/15 04:23:40;;;;;;;1.77;0.90;;;8.70;99.90;;;;;;10518411;28;20036;-65
2022/01/15 04:28:41;;;;;;;2.35;1.17;;;8.70;99.90;;;;;;10531601;28;20008;-65
2022/01/15 04:33:43;;;;;;;2.30;1.40;;;8.70;99.90;;;;;;10530654;28;20052;-67
2022/01/15 04:38:45;;;;;;;1.63;0.77;;;8.70;99.90;;;;;;10530969;28;20032;-70
2022/01/15 04:43:45;;;;;;;2.60;1.08;;;8.70;99.90;;;;;;10530837;28;20039;-71
2022/01/15 04:48:46;;;;;;;2.45;1.15;;;8.70;99.90;;;;;;10516972;28;20356;-63
2022/01/15 04:53:47;;;;;;;2.38;1.20;;;8.70;99.90;;;;;;10530125;28;20032;-71
2022/01/15 04:58:48;;;;;;;1.83;0.82;;;8.60;99.90;;;;;;10540013;28;20260;-67
2022/01/15 05:03:49;;;;;;;1.83;0.95;;;8.60;99.90;;;;;;10530034;28;20076;-69
2022/01/15 05:09:00;;;;;;;1.38;0.82;;;8.60;99.90;;;;;;10531912;28;20062;-73
2022/01/15 05:14:01;;;;;;;1.65;0.82;;;8.60;99.90;;;;;;10529719;28;20089;-65
2022/01/15 05:19:02;;;;;;;2.17;1.00;;;8.60;99.90;;;;;;10535781;28;20024;-73
2022/01/15 05:24:03;;;;;;;1.75;0.90;;;8.60;99.90;;;;;;10516224;28;20081;-70
2022/01/15 05:29:04;;;;;;;1.67;0.80;;;8.60;99.90;;;;;;10528092;28;20051;-72
2022/01/15 05:34:05;;;;;;;1.42;0.80;;;8.70;99.90;;;;;;10528563;28;20147;-67
2022/01/15 05:39:07;;;;;;;1.63;0.82;;;8.60;99.90;;;;;;10528514;28;20031;-72
2022/01/15 05:44:08;;;;;;;1.05;0.70;;;8.60;99.90;;;;;;10541019;28;20053;-64
2022/01/15 05:49:08;;;;;;;1.30;0.80;;;8.60;99.90;;;;;;10514414;28;20413;-62
2022/01/15 05:54:10;;;;;;;2.00;1.05;;;8.60;99.90;;;;;;10527949;28;20040;-61
2022/01/15 05:59:11;;;;;;;2.22;1.15;;;8.60;99.90;;;;;;10537290;28;20076;-63
2022/01/15 06:04:12;;;;;;;2.47;0.88;;;8.60;99.90;;;;;;10540852;28;20103;-61
2022/01/15 06:09:12;;;;;;;2.17;0.82;;;8.60;99.90;;;;;;10529372;28;20498;-63
2022/01/15 06:14:13;;;;;;;1.65;0.80;;;8.60;99.90;;;;;;10529326;28;20051;-62
2022/01/15 06:19:14;;;;;;;1.70;0.70;;;8.80;99.90;;;;;;10516290;28;20486;-68
2022/01/15 06:24:14;;;;;;;3.45;1.08;;;8.60;99.90;;;;;;10519913;28;20039;-72
2022/01/15 06:29:15;;;;;;;1.38;0.80;;;8.50;99.90;;;;;;10522416;28;20051;-70
2022/01/15 06:34:15;;;;;;;1.45;0.85;;;8.50;99.90;;;;;;10517545;28;20044;-65
2022/01/15 06:39:16;;;;;;;1.42;0.90;;;8.50;99.90;;;;;;10514020;28;20034;-64
2022/01/15 06:44:17;;;;;;;2.00;0.90;;;8.50;99.90;;;;;;10548486;28;20032;-70
2022/01/15 06:49:18;;;;;;;1.85;0.90;;;8.50;99.90;;;;;;10535357;28;20432;-69
2022/01/15 06:54:19;;;;;;;1.30;0.60;;;8.50;99.90;;;;;;10535256;28;20084;-68
2022/01/15 06:59:19;;;;;;;1.70;0.90;;;8.50;99.90;;;;;;10544252;28;20032;-72
2022/01/15 07:04:20;;;;;;;1.80;0.80;;;8.50;99.90;;;;;;10530096;28;20577;-71
2022/01/15 07:09:21;;;;;;;1.58;0.82;;;8.50;99.90;;;;;;10499641;28;20028;-71
2022/01/15 07:14:21;;;;;;;1.90;1.00;;;8.40;99.90;;;;;;10534314;28;20036;-71
2022/01/15 07:19:22;;;;;;;1.65;0.80;;;8.60;99.90;;;;;;10540478;28;20030;-72
2022/01/15 07:24:23;;;;;;;1.45;1.00;;;8.40;99.90;;;;;;10520737;28;20048;-70
2022/01/15 07:29:24;;;;;;;1.88;0.90;;;8.40;99.90;;;;;;10520291;28;20028;-68
2022/01/15 07:34:25;;;;;;;1.88;0.85;;;8.40;99.90;;;;;;10533081;28;20052;-72
2022/01/15 07:39:26;;;;;;;1.80;0.98;;;8.50;99.90;;;;;;10531697;28;20149;-71
2022/01/15 07:44:27;;;;;;;1.13;0.73;;;8.40;99.90;;;;;;10543549;28;20036;-67
2022/01/15 07:49:28;;;;;;;1.85;0.85;;;8.40;99.90;;;;;;10516235;28;20028;-71
2022/01/15 07:54:28;;;;;;;2.65;0.88;;;8.40;99.90;;;;;;10532424;28;20048;-70
2022/01/15 07:59:29;;;;;;;3.53;1.50;;;8.40;99.90;;;;;;10542723;28;20027;-71
2022/01/15 08:04:30;;;;;;;2.40;1.30;;;8.40;99.90;;;;;;10534337;28;20019;-69
2022/01/15 08:09:31;;;;;;;5.47;1.90;;;8.30;99.90;;;;;;10534588;28;20028;-70
2022/01/15 08:14:32;;;;;;;5.35;1.90;;;8.60;99.90;;;;;;10532914;28;20481;-70
2022/01/15 08:19:32;;;;;;;4.60;1.90;;;8.30;99.90;;;;;;10538625;28;20016;-69
2022/01/15 08:24:33;;;;;;;5.03;1.98;;;8.40;99.90;;;;;;10524693;28;20020;-70
2022/01/15 08:29:34;;;;;;;5.32;2.85;;;8.30;99.90;;;;;;10517163;28;20029;-69
2022/01/15 08:34:34;;;;;;;5.25;2.58;;;8.30;99.90;;;;;;10515956;28;20380;-69
2022/01/15 08:39:36;;;;;;;6.28;2.42;;;8.30;99.90;;;;;;10531725;28;20201;-70
2022/01/15 08:44:41;;;;;;;7.22;3.05;;;8.30;99.90;;;;;;10530957;28;20363;-70
2022/01/15 08:49:42;;;;;;;7.53;2.83;;;8.30;99.90;;;;;;10536542;28;20061;-69
2022/01/15 08:54:43;;;;;;;7.40;3.47;;;8.30;99.90;;;;;;10541153;28;20032;-69
2022/01/15 08:59:43;;;;;;;9.75;4.25;;;8.30;99.90;;;;;;10544429;28;20371;-68
2022/01/15 09:04:45;;;;;;;10.25;4.07;;;8.30;99.90;;;;;;10544101;28;20024;-69
2022/01/15 09:09:45;;;;;;;10.55;4.35;;;8.20;99.90;;;;;;10539498;28;20069;-69
2022/01/15 09:14:46;;;;;;;11.75;4.50;;;8.20;99.90;;;;;;10530752;28;20101;-69
2022/01/15 09:19:47;;;;;;;11.70;5.10;;;8.30;99.90;;;;;;10537006;28;20138;-69
2022/01/15 09:24:48;;;;;;;11.88;4.95;;;8.30;99.90;;;;;;10529634;28;20039;-69
2022/01/15 09:35:09;;;;;;;12.88;4.47;;;8.30;99.90;;;;;;10511760;28;20425;-64
2022/01/15 09:40:10;;;;;;;12.38;4.90;;;8.30;99.90;;;;;;10530857;28;20028;-66
2022/01/15 09:45:12;;;;;;;9.35;4.28;;;8.30;99.90;;;;;;10530296;28;20406;-69
2022/01/15 09:50:16;;;;;;;10.60;3.95;;;8.30;99.90;;;;;;10529305;28;20069;-65
2022/01/15 09:55:16;;;;;;;11.35;4.72;;;8.20;99.90;;;;;;10528781;28;20121;-69
2022/01/15 10:00:18;;;;;;;10.07;3.90;;;8.20;99.90;;;;;;10530501;28;20178;-67
2022/01/15 10:05:20;;;;;;;10.88;4.13;;;8.20;99.90;;;;;;10528653;28;20515;-69
2022/01/15 10:10:22;;;;;;;17.13;4.05;;;8.30;99.90;;;;;;10526912;28;20052;-67
2022/01/15 10:15:23;;;;;;;13.35;4.03;;;8.20;99.90;;;;;;10529368;28;20389;-67
2022/01/15 10:20:23;;;;;;;11.07;4.40;;;8.20;99.90;;;;;;10521429;28;20020;-68
2022/01/15 10:25:24;;;;;;;8.90;4.20;;;8.20;99.90;;;;;;10528771;28;20040;-65
2022/01/15 10:30:27;;;;;;;10.85;3.83;;;8.20;99.90;;;;;;10502564;28;20089;-65
2022/01/15 10:35:35;;;;;;;7.55;3.50;;;8.20;99.90;;;;;;10491155;28;20447;-68
2022/01/15 10:40:39;;;;;;;8.48;3.88;;;8.20;99.90;;;;;;10520310;28;20133;-69
2022/01/15 10:45:53;;;;;;;9.90;4.63;;;8.20;99.90;;;;;;10527662;28;20032;-68
2022/01/15 10:50:57;;;;;;;9.23;4.07;;;8.20;99.90;;;;;;10526889;28;20020;-68
2022/01/15 10:55:58;;;;;;;10.85;4.85;;;8.10;99.90;;;;;;10526219;28;20390;-67
2022/01/15 11:00:59;;;;;;;13.80;4.90;;;8.20;99.90;;;;;;10536336;28;20115;-68
2022/01/15 11:06:00;;;;;;;12.27;5.00;;;8.20;99.90;;;;;;10527498;28;20095;-63
2022/01/15 11:11:08;;;;;;;9.60;4.70;;;8.20;99.90;;;;;;10512269;28;20068;-65
2022/01/15 11:16:14;;;;;;;10.95;4.80;;;8.20;99.90;;;;;;10512130;28;20059;-64
2022/01/15 11:21:18;;;;;;;10.43;5.60;;;8.40;99.90;;;;;;10522620;28;20506;-64
2022/01/15 11:26:24;;;;;;;8.90;5.40;;;8.20;99.90;;;;;;10512253;28;20176;-61
2022/01/15 11:31:28;;;;;;;13.27;5.22;;;8.20;99.90;;;;;;10532442;28;20043;-65
2022/01/15 11:36:43;;;;;;;16.58;5.32;;;8.40;99.90;;;;;;10532340;28;20695;-64
2022/01/15 11:41:53;;;;;;;13.07;5.35;;;8.20;99.90;;;;;;10522270;28;20099;-63
2022/01/15 11:46:55;;;;;;;10.75;5.30;;;8.20;99.90;;;;;;10526714;28;20057;-61
2022/01/15 11:52:08;;;;;;;12.40;5.30;;;8.20;99.90;;;;;;10533473;28;20089;-64
2022/01/15 11:57:32;;;;;;;13.30;5.53;;;8.20;99.90;;;;;;10536372;28;20036;-61
2022/01/15 12:02:37;;;;;;;12.75;5.38;;;8.20;99.90;;;;;;10494362;28;20025;-63
2022/01/15 12:07:38;;;;;;;13.70;5.93;;;8.10;99.90;;;;;;10525071;28;20096;-63
2022/01/15 12:12:44;;;;;;;13.32;6.18;;;8.10;99.90;;;;;;10527904;28;20497;-64
2022/01/15 12:17:50;;;;;;;14.30;5.97;;;8.20;99.90;;;;;;10524155;28;20044;-64
2022/01/15 12:22:52;;;;;;;12.65;5.80;;;8.20;99.90;;;;;;10528345;28;20028;-65
2022/01/15 12:27:57;;;;;;;16.70;7.00;;;8.20;99.90;;;;;;10526577;28;20035;-65
2022/01/15 12:33:00;;;;;;;17.33;6.60;;;8.20;99.90;;;;;;10521096;28;20540;-66
2022/01/15 12:38:05;;;;;;;19.90;7.63;;;8.10;99.90;;;;;;10530188;28;20104;-65
2022/01/15 12:43:33;;;;;;;18.58;7.57;;;8.10;99.90;;;;;;10542933;28;20035;-64
2022/01/15 12:48:39;;;;;;;17.00;6.95;;;8.00;99.90;;;;;;10517320;28;20392;-62
2022/01/15 12:53:44;;;;;;;17.73;7.28;;;8.00;99.90;;;;;;10529028;28;20044;-67
2022/01/15 12:58:45;;;;;;;19.85;7.47;;;8.00;99.90;;;;;;10539047;28;20020;-64
2022/01/15 13:03:46;;;;;;;23.13;8.85;;;7.90;99.90;;;;;;10495433;28;20036;-66
2022/01/15 13:08:47;;;;;;;19.65;7.85;;;8.10;99.90;;;;;;10531443;28;20050;-66
2022/01/15 13:13:52;;;;;;;18.35;7.43;;;7.80;99.90;;;;;;10497084;28;20577;-64
2022/01/15 13:18:58;;;;;;;18.42;7.88;;;7.70;99.90;;;;;;10535571;28;20043;-66
2022/01/15 13:24:09;;;;;;;20.02;7.82;;;7.60;99.90;;;;;;10516372;28;20474;-65
2022/01/15 13:29:14;;;;;;;17.92;8.13;;;7.60;99.90;;;;;;10523941;28;20020;-69
2022/01/15 13:34:17;;;;;;;17.48;7.40;;;7.60;99.90;;;;;;10501805;28;20127;-69
2022/01/15 13:39:19;;;;;;;20.13;8.65;;;7.80;99.90;;;;;;10511211;28;20055;-69
2022/01/15 13:44:21;;;;;;;19.75;8.95;;;7.70;99.90;;;;;;10528394;28;20038;-68
2022/01/15 13:49:35;;;;;;;16.52;7.57;;;7.70;99.90;;;;;;10513672;28;20056;-69
2022/01/15 13:54:37;;;;;;;17.63;8.00;;;7.70;99.90;;;;;;10527645;28;20039;-70
2022/01/15 13:59:40;;;;;;;19.02;8.43;;;7.70;99.90;;;;;;10519099;28;20020;-67
2022/01/15 14:04:40;;;;;;;16.13;7.72;;;7.70;99.90;;;;;;10516254;28;20020;-69
2022/01/15 14:09:46;;;;;;;22.42;9.02;;;7.70;99.90;;;;;;10520495;28;20048;-69
2022/01/15 14:14:54;;;;;;;17.08;7.53;;;7.70;99.90;;;;;;10522006;28;20329;-69
2022/01/15 14:25:22;;;;;;;12.55;6.93;;;7.90;99.90;;;;;;10513651;28;20032;-69
2022/01/15 14:30:23;;;;;;;15.10;7.07;;;7.80;99.90;;;;;;10516313;28;20024;-71
2022/01/15 14:35:25;;;;;;;14.00;6.93;;;7.70;99.90;;;;;;10527067;28;20044;-71
2022/01/15 14:40:26;;;;;;;16.98;7.97;;;7.70;99.90;;;;;;10513561;28;20032;-71
2022/01/15 14:45:27;;;;;;;16.17;6.82;;;7.70;99.90;;;;;;10538988;28;20027;-70
2022/01/15 14:50:28;;;;;;;16.85;8.57;;;7.70;99.90;;;;;;10526326;28;20044;-66
2022/01/15 14:55:28;;;;;;;16.35;7.95;;;7.80;99.90;;;;;;10526698;28;20109;-68
2022/01/15 15:00:30;;;;;;;16.40;8.07;;;7.80;99.90;;;;;;10520307;28;20055;-67
2022/01/15 15:05:31;;;;;;;16.98;8.02;;;7.80;99.90;;;;;;10517824;28;20130;-68
2022/01/15 15:10:31;;;;;;;17.42;7.35;;;7.70;99.90;;;;;;10515701;28;20483;-68
2022/01/15 15:15:32;;;;;;;16.02;7.32;;;7.60;99.90;;;;;;10507335;28;20488;-68
2022/01/15 15:20:33;;;;;;;16.98;7.72;;;7.50;99.90;;;;;;10538952;28;20016;-69
2022/01/15 15:25:33;;;;;;;17.17;7.97;;;7.50;99.90;;;;;;10518940;28;20042;-67
2022/01/15 15:30:34;;;;;;;17.90;8.35;;;7.60;99.90;;;;;;10519395;28;20127;-71
2022/01/15 15:35:35;;;;;;;17.58;7.38;;;7.60;99.90;;;;;;10508236;28;20040;-69
2022/01/15 15:40:36;;;;;;;16.13;7.65;;;7.60;99.90;;;;;;10515886;28;20678;-72
2022/01/15 15:45:36;;;;;;;16.17;7.38;;;7.60;99.90;;;;;;10538417;28;20024;-72
2022/01/15 15:50:37;;;;;;;16.08;7.85;;;7.60;99.90;;;;;;10530883;28;20043;-68
2022/01/15 15:55:38;;;;;;;14.25;7.07;;;7.60;99.90;;;;;;10505511;28;20532;-64
2022/01/15 16:00:38;;;;;;;16.42;6.85;;;7.90;99.90;;;;;;10529280;28;20028;-65
2022/01/15 16:05:39;;;;;;;13.57;6.80;;;7.70;99.90;;;;;;10521987;28;20502;-67
2022/01/15 16:10:40;;;;;;;13.70;6.65;;;7.70;99.90;;;;;;10531280;28;20020;-68
2022/01/15 16:15:41;;;;;;;13.20;6.90;;;7.70;99.90;;;;;;10517479;28;20056;-69
2022/01/15 16:20:42;;;;;;;14.40;7.38;;;7.70;99.90;;;;;;10536937;28;20017;-70
2022/01/15 16:25:42;;;;;;;14.18;6.90;;;7.70;99.90;;;;;;10529472;28;20036;-68
2022/01/15 16:30:43;;;;;;;15.50;6.63;;;7.60;99.90;;;;;;10530241;28;20123;-66
2022/01/15 16:35:44;;;;;;;13.75;6.10;;;7.60;99.90;;;;;;10530485;28;20040;-68
2022/01/15 16:40:45;;;;;;;14.20;6.68;;;7.60;99.90;;;;;;10530446;28;20028;-69
2022/01/15 16:45:46;;;;;;;13.20;6.50;;;7.60;99.90;;;;;;10530688;28;20093;-65
2022/01/15 16:50:47;;;;;;;14.57;6.45;;;7.60;99.90;;;;;;10530106;28;20024;-67
2022/01/15 16:55:48;;;;;;;16.50;7.30;;;7.60;99.90;;;;;;10529533;28;20044;-69
2022/01/15 17:00:49;;;;;;;14.93;7.15;;;7.60;99.90;;;;;;10518432;28;20500;-68
2022/01/15 17:05:50;;;;;;;15.95;7.38;;;7.60;99.90;;;;;;10532076;28;20028;-69
2022/01/15 17:10:50;;;;;;;15.60;6.35;;;7.60;99.90;;;;;;10529074;28;20048;-68
2022/01/15 17:15:51;;;;;;;15.32;6.85;;;7.70;99.90;;;;;;10528453;28;20093;-69
2022/01/15 17:20:52;;;;;;;15.45;5.93;;;7.60;99.90;;;;;;10535087;28;20440;-67
2022/01/15 17:25:52;;;;;;;16.00;6.30;;;7.60;99.90;;;;;;10514778;28;20486;-66
2022/01/15 17:30:53;;;;;;;15.10;6.38;;;7.60;99.90;;;;;;10519514;28;20044;-67
2022/01/15 17:35:54;;;;;;;15.90;6.82;;;7.50;99.90;;;;;;10517446;28;20415;-68
2022/01/15 17:40:55;;;;;;;14.50;6.07;;;7.60;99.90;;;;;;10514876;28;20027;-68
2022/01/15 17:45:56;;;;;;;14.48;6.18;;;8.00;99.90;;;;;;10497048;28;20432;-67
2022/01/15 17:50:56;;;;;;;14.38;6.35;;;7.60;99.90;;;;;;10502651;28;20527;-62
2022/01/15 17:55:57;;;;;;;18.48;6.85;;;7.60;99.90;;;;;;10490158;28;20033;-68
2022/01/15 18:01:01;;;;;;;13.85;6.28;;;7.50;99.90;;;;;;10510743;28;20043;-69
2022/01/15 18:06:05;;;;;;;17.73;6.53;;;7.50;99.90;;;;;;10507951;28;20030;-70
2022/01/15 18:11:06;;;;;;;17.65;7.75;;;7.50;99.90;;;;;;10513791;28;20043;-69
2022/01/15 18:16:07;;;;;;;17.40;6.90;;;7.60;99.90;;;;;;10520456;28;20528;-67
2022/01/15 18:21:07;;;;;;;17.65;6.85;;;7.70;99.90;;;;;;10526879;28;20111;-66
2022/01/15 18:26:08;;;;;;;14.88;6.55;;;7.70;99.90;;;;;;10526916;28;20032;-68
2022/01/15 18:31:09;;;;;;;16.15;7.10;;;7.80;99.90;;;;;;10521312;28;20402;-67
2022/01/15 18:36:10;;;;;;;18.80;6.75;;;7.60;99.90;;;;;;10516702;28;20055;-66
2022/01/15 18:41:12;;;;;;;14.88;6.75;;;7.60;99.90;;;;;;10533173;28;20039;-68
2022/01/15 18:46:12;;;;;;;16.58;7.50;;;7.60;99.90;;;;;;10535580;28;20020;-68
2022/01/15 18:51:18;;;;;;;22.48;8.48;;;7.50;99.90;;;;;;10535085;28;20026;-70
2022/01/15 18:56:19;;;;;;;21.35;8.05;;;7.50;99.90;;;;;;10536752;28;20093;-68
2022/01/15 19:01:20;;;;;;;21.50;7.88;;;7.50;99.90;;;;;;10542696;28;20024;-68
2022/01/15 19:06:21;;;;;;;20.48;8.68;;;7.50;99.90;;;;;;10531880;28;20390;-68
2022/01/15 19:11:22;;;;;;;22.90;8.40;;;7.50;99.90;;;;;;10501214;28;20556;-69
2022/01/15 19:16:23;;;;;;;25.58;8.65;;;7.50;99.90;;;;;;10533765;28;20036;-70
2022/01/15 19:21:25;;;;;;;22.17;9.23;;;7.70;99.90;;;;;;10540621;28;20442;-68
2022/01/15 19:26:25;;;;;;;25.77;10.15;;;7.50;99.90;;;;;;10527728;28;20036;-65
2022/01/15 19:31:26;;;;;;;24.25;9.85;;;7.60;99.90;;;;;;10505734;28;20398;-70
2022/01/15 19:36:27;;;;;;;23.67;8.40;;;7.60;99.90;;;;;;10515578;28;20032;-68
2022/01/15 19:41:28;;;;;;;24.17;8.93;;;7.60;99.90;;;;;;10513612;28;20020;-68
2022/01/15 19:46:28;;;;;;;23.10;8.90;;;7.60;99.90;;;;;;10514472;28;20024;-65
2022/01/15 19:51:29;;;;;;;24.55;9.82;;;7.60;99.90;;;;;;10513712;28;20023;-65
2022/01/15 19:56:31;;;;;;;25.77;9.90;;;7.60;99.90;;;;;;10515868;28;20127;-64
2022/01/15 20:01:32;;;;;;;27.30;9.45;;;7.60;99.90;;;;;;10522358;28;20080;-65
2022/01/15 20:06:33;;;;;;;24.80;10.38;;;7.60;99.90;;;;;;10519475;28;20021;-65
2022/01/15 20:11:37;;;;;;;25.70;10.25;;;7.60;99.90;;;;;;10513439;28;20028;-66
2022/01/15 20:16:38;;;;;;;27.02;10.65;;;7.60;99.90;;;;;;10513860;28;20028;-68
2022/01/15 20:21:41;;;;;;;27.83;11.98;;;7.60;99.90;;;;;;10513353;28;20024;-68
2022/01/15 20:26:42;;;;;;;31.23;11.30;;;7.60;99.90;;;;;;10514334;28;20081;-66
2022/01/15 20:31:44;;;;;;;29.23;11.15;;;7.60;99.90;;;;;;10520092;28;20453;-63
2022/01/15 20:36:45;;;;;;;34.13;12.68;;;7.60;99.90;;;;;;10524029;28;20058;-64
2022/01/15 20:41:47;;;;;;;36.03;13.23;;;7.70;99.90;;;;;;10525688;28;20019;-63
2022/01/15 20:46:48;;;;;;;33.30;13.00;;;7.60;99.90;;;;;;10514687;28;20048;-67
2022/01/15 20:51:48;;;;;;;36.65;13.80;;;7.60;99.90;;;;;;10520840;28;20027;-63
2022/01/15 20:56:49;;;;;;;39.83;13.90;;;7.50;99.90;;;;;;10506565;28;20051;-68
2022/01/15 21:01:50;;;;;;;39.55;14.35;;;7.60;99.90;;;;;;10516413;28;20020;-66
2022/01/15 21:06:51;;;;;;;35.33;13.13;;;7.50;99.90;;;;;;10524923;28;20073;-64
2022/01/15 21:11:53;;;;;;;34.88;13.25;;;7.50;99.90;;;;;;10521356;28;20073;-63
2022/01/15 21:16:54;;;;;;;38.30;13.82;;;7.50;99.90;;;;;;10502884;28;20433;-62
2022/01/15 21:21:54;;;;;;;33.25;13.48;;;7.50;99.90;;;;;;10529897;28;20065;-64
2022/01/15 21:26:55;;;;;;;37.92;13.88;;;7.70;99.90;;;;;;10518105;28;20478;-67
2022/01/15 21:31:56;;;;;;;37.33;13.50;;;7.50;99.90;;;;;;10503546;28;20040;-68
2022/01/15 21:36:57;;;;;;;34.42;12.68;;;7.40;99.90;;;;;;10498332;28;20032;-63
2022/01/15 21:41:58;;;;;;;36.58;14.77;;;7.60;99.90;;;;;;10498698;28;20126;-66
2022/01/15 21:46:59;;;;;;;31.80;12.85;;;7.30;99.90;;;;;;10522806;28;20102;-63
2022/01/15 21:52:00;;;;;;;35.22;12.52;;;7.40;99.90;;;;;;10515543;28;20028;-64
2022/01/15 21:57:01;;;;;;;33.75;12.50;;;7.30;99.90;;;;;;10517045;28;20123;-62
2022/01/15 22:02:02;;;;;;;34.85;13.32;;;7.30;99.90;;;;;;10512710;28;20131;-66
2022/01/15 22:07:06;;;;;;;32.53;13.93;;;7.30;99.90;;;;;;10522638;28;20507;-62
2022/01/15 22:12:12;;;;;;;35.97;13.55;;;7.30;99.90;;;;;;10522950;28;20024;-66
2022/01/15 22:17:12;;;;;;;30.60;11.90;;;7.30;99.90;;;;;;10518730;28;20048;-66
2022/01/15 22:22:13;;;;;;;38.20;13.77;;;7.60;99.90;;;;;;10529916;28;20044;-66
2022/01/15 22:27:15;;;;;;;34.60;13.18;;;7.30;99.90;;;;;;10506052;28;20317;-69
2022/01/15 22:32:18;;;;;;;35.92;13.40;;;7.30;99.90;;;;;;10509982;28;20048;-68
2022/01/15 22:37:19;;;;;;;37.25;12.68;;;7.20;99.90;;;;;;10507177;28;20033;-64
2022/01/15 22:42:20;;;;;;;31.33;13.13;;;7.20;99.90;;;;;;10507295;28;20032;-67
2022/01/15 22:47:20;;;;;;;34.05;13.20;;;7.30;99.90;;;;;;10512487;28;20036;-65
2022/01/15 22:52:21;;;;;;;32.38;12.13;;;7.20;99.90;;;;;;10513998;28;20050;-68
2022/01/15 22:57:22;;;;;;;31.25;12.90;;;7.20;99.90;;;;;;10523176;28;20115;-63
2022/01/15 23:02:23;;;;;;;33.40;12.55;;;7.20;99.90;;;;;;10526643;28;20386;-63
2022/01/15 23:07:24;;;;;;;30.70;12.98;;;7.20;99.90;;;;;;10520216;28;20059;-63
2022/01/15 23:12:25;;;;;;;35.13;12.45;;;7.20;99.90;;;;;;10525617;28;20124;-63
2022/01/15 23:17:26;;;;;;;37.13;13.27;;;7.20;99.90;;;;;;10528901;28;20040;-67
2022/01/15 23:22:27;;;;;;;32.50;12.57;;;7.20;99.90;;;;;;10540184;28;20032;-68
2022/01/15 23:27:28;;;;;;;31.67;12.05;;;7.20;99.90;;;;;;10530257;28;20028;-65
2022/01/15 23:32:29;;;;;;;35.50;13.45;;;7.10;99.90;;;;;;10532107;28;20082;-64
2022/01/15 23:37:29;;;;;;;30.33;11.55;;;7.10;99.90;;;;;;10524627;28;20039;-67
2022/01/15 23:42:37;;;;;;;33.03;13.18;;;7.10;99.90;;;;;;10534184;28;20028;-68
2022/01/15 23:47:38;;;;;;;34.17;13.02;;;7.10;99.90;;;;;;10531460;28;20028;-68
2022/01/15 23:52:38;;;;;;;28.83;11.95;;;7.10;99.90;;;;;;10519941;28;20217;-68
2022/01/15 23:57:39;;;;;;;30.15;12.32;;;7.00;99.90;;;;;;10507037;28;20020;-65
